AirNav   Air Wisconsin Up To $57,000 Bonus
 
 464 users online  

TE67 Cibolo Sea-Willo Airpark
New Berlin, Texas, USA

GOING TO NEW BERLIN?


FAA INFORMATION EFFECTIVE 22 APRIL 2021

Location

FAA Identifier: TE67
Lat/Long: 29-25-44.8400N 098-07-54.0200W
29-25.747333N 098-07.900333W
29.4291222,-98.1316722
(estimated)
Elevation: 517 ft. / 158 m (estimated)
Variation: 07E (1995)
From city: 4 miles SW of NEW BERLIN, TX
Time zone: UTC -5 (UTC -6 during Standard Time)
Zip code: 78121

Airport Operations

Airport use: Private use. Permission required prior to landing
Activation date: 06/2000
Control tower: no
ARTCC: HOUSTON CENTER
FSS: SAN ANGELO FLIGHT SERVICE STATION
Attendance: UNATNDD
Wind indicator: yes
Segmented circle: no

Airport Communications

WX ASOS at BAZ (17 nm N): 119.325 (830-629-7979)
WX ASOS at SSF (19 nm W): PHONE 210-927-9391
WX ASOS at SAT (19 nm W): PHONE 210-805-5583

Nearby radio navigation aids

VOR radial/distance  VOR name  Freq  Var
RNDr119/9.7RANDOLPH VORTAC112.3005E
SSFr049/(19.3)STINSON VOR108.4009E
SATr119/21.5SAN ANTONIO VORTAC116.8008E

Airport Services

Runway Information

Runway 16/34

Dimensions: 2500 x 40 ft. / 762 x 12 m
Surface: asphalt
RUNWAY 16  RUNWAY 34
Traffic pattern: leftleft
Obstructions: 45 ft. trees, 500 ft. from runway30 ft. pole, 10 ft. from runway

Airport Ownership and Management from official FAA records

Ownership: Privately-owned
Owner: JOHN L. BOHANNON
9015 FM 775
SEGUIN, TX 78155
Phone 830-914-3288
Manager: LEONARD BOHANNON
334 CHURCH RD
SEGUIN, TX 78155
Phone (830) 556-6362

Additional Remarks

FOR CD CTC SAN ANTONIO APCH AT 210-805-5516.

Instrument Procedures

There are no published instrument procedures at TE67.

Some nearby airports with instrument procedures:

KRND - Randolph Air Force Base (10 nm NW)
KBAZ - New Braunfels Regional Airport (17 nm N)
KSSF - Stinson Municipal Airport (19 nm W)
KSAT - San Antonio International Airport (19 nm W)
KSKF - Kelly Field Airport (24 nm W)
 
Loc | Ops | Rwys | IFR | FBO | Links
Com | Nav | Svcs | Stats | Notes
Area around TE67 (Cibolo Sea-Willo Airpark)
 
Road maps at: MapQuest Bing Google
 
Aerial photo
WARNING: Photo may not be current or correct
Aerial photo of TE67 (Cibolo Sea-Willo Airpark)
Do you have a better or more recent aerial photo of Cibolo Sea-Willo Airpark that you would like to share? If so, please send us your photo.

 
Sectional chart

 
Airport distance calculator
Flying to Cibolo Sea-Willo Airpark? Find the distance to fly.

From to TE67

Sunrise and sunset
Times for 13-May-2021
 Local
(UTC-5)
 Zulu
(UTC)
Morning civil twilight06:1711:17
Sunrise06:4211:42
Sunset20:1501:15
Evening civil twilight20:4101:41

Current date and time
Zulu (UTC)  13-May-2021 10:04:47
Local (UTC-5)  13-May-2021 05:04:47
 
METAR
KRND 
9nm NW 
130956Z AUTO 03007KT 10SM OVC028 16/13 A3024 RMK AO2 CIG 026 RWY15L CIG 027 RWY15R SLP235 T01590130
KSEQ 
14nm NE 
130958Z AUTO 03009KT 10SM OVC035 16/13 A3029 RMK AO2 SLP256 T01560132
KBAZ 
18nm N 
130951Z AUTO 03007KT 10SM OVC032 16/13 A3025 RMK AO2 SLP237 T01610128
KSSF 
18nm W 
130953Z AUTO 04009KT 10SM OVC018 17/13 A3024 RMK AO2 SLP232 T01720128
KSAT 
19nm W 
130951Z 03008KT 10SM OVC018 16/13 A3026 RMK AO2 SLP232 T01560128 $
TAF
KRND 
9nm NW 
121822Z 1218/1322 02015G22KT 9999 SCT021 BKN065 QNH3011INS TEMPO 1219/1223 BKN025 BECMG 1223/1224 02014KT 9999 BKN020 OVC065 QNH3010INS BECMG 1307/1308 03015G20KT 9999 BKN013 QNH3019INS BECMG 1314/1315 03012KT 9999 BKN015 QNH3026INS BECMG 1316/1317 03009KT 9999 BKN020 QNH3017INS TX21/1222Z TN15/1312Z LAST NO AMDS AFT 1300 NEXT 1310
KSSF 
18nm W 
130529Z 1306/1406 02010KT P6SM BKN022 BKN250 FM131900 05010KT P6SM BKN035 FM140500 07005KT P6SM BKN022
KSAT 
19nm W 
130529Z 1306/1412 01010KT P6SM BKN022 BKN250 FM131900 05010KT P6SM BKN035 FM140600 07005KT P6SM BKN022
NOTAMs
Click for the latest NOTAMs
NOTAMs are issued by the DoD/FAA and will open in a separate window not controlled by AirNav.

 

 
 

Would you like to see your business listed on this page?

 If your business provides an interesting product or service to pilots, flight crews, aircraft, or users of the Cibolo Sea-Willo Airpark, you should consider listing it here.  To start the listing process, click on the button below
 
Add a business
 

Other Pages about Cibolo Sea-Willo Airpark

Update a link
 
Copyright © AirNav, LLC. All rights reserved. Privacy Policy  Contact